createdAt,value
2018-09-28T00:01:25.610Z,6.87
2018-09-28T00:03:53.927Z,7.13
2018-09-28T00:06:22.181Z,7.07
2018-09-28T00:08:50.313Z,7.30
2018-09-28T00:11:18.486Z,6.50
2018-09-28T00:13:46.653Z,6.30
2018-09-28T00:16:14.851Z,6.00
2018-09-28T00:18:43.021Z,6.10
2018-09-28T00:21:11.194Z,5.07
2018-09-28T00:23:39.339Z,4.50
2018-09-28T00:26:07.688Z,4.93
2018-09-28T00:28:35.791Z,4.27
2018-09-28T00:31:03.977Z,4.07
2018-09-28T00:33:32.132Z,4.30
2018-09-28T00:36:00.385Z,3.97
2018-09-28T00:38:28.526Z,4.47
2018-09-28T00:40:56.723Z,4.40
2018-09-28T00:43:25.096Z,4.70
2018-09-28T00:45:53.230Z,3.47
2018-09-28T00:48:21.401Z,3.50
2018-09-28T00:50:49.531Z,4.47
2018-09-28T00:53:17.670Z,3.80
2018-09-28T00:55:45.841Z,3.93
2018-09-28T00:58:13.999Z,3.77
2018-09-28T01:00:42.194Z,3.90
2018-09-28T01:03:10.410Z,3.37
2018-09-28T01:05:38.540Z,5.37
2018-09-28T01:08:06.688Z,4.60
2018-09-28T01:10:34.885Z,2.60
2018-09-28T01:13:03.006Z,2.40
2018-09-28T01:15:31.212Z,3.17
2018-09-28T01:17:59.438Z,2.50
2018-09-28T01:20:27.634Z,3.20
2018-09-28T01:22:55.798Z,2.20
2018-09-28T01:25:23.982Z,2.70
2018-09-28T01:27:52.107Z,2.20
2018-09-28T01:30:20.278Z,2.30
2018-09-28T01:32:48.582Z,2.07
2018-09-28T01:35:16.790Z,2.33
2018-09-28T01:37:44.931Z,2.53
2018-09-28T01:40:13.091Z,2.37
2018-09-28T01:42:41.231Z,2.47
2018-09-28T01:45:09.386Z,2.40
2018-09-28T01:47:37.544Z,2.87
2018-09-28T01:50:05.799Z,2.20
2018-09-28T01:52:33.964Z,2.37
2018-09-28T01:55:02.161Z,2.50
2018-09-28T01:57:30.282Z,2.13
2018-09-28T01:59:58.526Z,2.83
2018-09-28T02:02:26.939Z,2.40
2018-09-28T02:04:55.129Z,2.17
2018-09-28T02:07:23.298Z,2.70
2018-09-28T02:09:51.473Z,2.40
2018-09-28T02:12:19.687Z,2.30
2018-09-28T02:14:47.934Z,2.50
2018-09-28T02:17:16.134Z,2.40
2018-09-28T02:19:44.350Z,2.20
2018-09-28T02:22:12.502Z,2.40
2018-09-28T02:24:40.668Z,2.03
2018-09-28T02:27:08.866Z,2.03
2018-09-28T02:29:37.087Z,2.00
2018-09-28T02:32:05.486Z,2.37
2018-09-28T02:34:33.730Z,2.50
2018-09-28T02:37:01.958Z,2.53
2018-09-28T02:39:30.123Z,2.47
2018-09-28T02:41:58.286Z,2.07
2018-09-28T02:44:26.427Z,2.13
2018-09-28T02:46:54.650Z,2.03
2018-09-28T02:49:22.810Z,3.10
2018-09-28T02:51:50.942Z,2.20
2018-09-28T02:54:19.155Z,2.93
2018-09-28T02:56:47.361Z,2.20
2018-09-28T02:59:15.615Z,1.80
2018-09-28T03:01:43.782Z,2.40
2018-09-28T03:04:12.046Z,2.33
2018-09-28T03:06:40.235Z,2.20
2018-09-28T03:09:09.188Z,3.43
2018-09-28T03:11:37.410Z,2.70
2018-09-28T03:14:05.590Z,2.67
2018-09-28T03:16:34.033Z,3.07
2018-09-28T03:19:02.250Z,2.47
2018-09-28T03:21:30.771Z,1.90
2018-09-28T03:23:59.007Z,2.60
2018-09-28T03:26:27.223Z,2.80
2018-09-28T03:28:55.395Z,3.50
2018-09-28T03:31:30.434Z,2.60
2018-09-28T03:33:58.599Z,2.10
2018-09-28T03:36:26.778Z,2.80
2018-09-28T03:38:54.941Z,2.83
2018-09-28T03:41:23.074Z,3.17
2018-09-28T03:43:51.223Z,2.00
2018-09-28T03:46:19.454Z,3.93
2018-09-28T03:48:47.611Z,3.97
2018-09-28T03:51:15.807Z,3.53
2018-09-28T03:53:43.968Z,3.80
2018-09-28T03:56:12.102Z,3.40
2018-09-28T03:58:40.306Z,3.47
2018-09-28T04:01:08.739Z,5.10
2018-09-28T04:03:36.888Z,3.87
2018-09-28T04:06:05.058Z,3.63
2018-09-28T04:08:33.251Z,3.70
2018-09-28T04:11:01.403Z,2.47
2018-09-28T04:13:29.586Z,4.33
2018-09-28T04:15:57.737Z,2.23
2018-09-28T04:18:25.913Z,3.47
2018-09-28T04:20:54.071Z,4.70
2018-09-28T04:23:22.322Z,2.97
2018-09-28T04:25:50.447Z,4.77
2018-09-28T04:28:18.594Z,4.27
2018-09-28T04:30:46.829Z,4.33
2018-09-28T04:33:14.978Z,4.67
2018-09-28T04:35:43.171Z,4.33
2018-09-28T04:38:11.320Z,3.87
2018-09-28T04:40:39.474Z,2.73
2018-09-28T04:43:07.662Z,1.97
2018-09-28T04:45:35.867Z,4.43
2018-09-28T04:48:03.979Z,4.50
2018-09-28T04:50:32.139Z,3.63
2018-09-28T04:53:00.330Z,4.40
2018-09-28T04:55:28.523Z,3.90
2018-09-28T04:57:56.746Z,2.27
2018-09-28T05:00:24.961Z,5.10
2018-09-28T05:02:53.094Z,3.90
2018-09-28T05:05:21.418Z,4.27
2018-09-28T05:07:49.814Z,2.40
2018-09-28T05:10:17.955Z,3.90
2018-09-28T05:12:46.727Z,3.07
2018-09-28T05:15:14.886Z,3.90
2018-09-28T05:17:43.108Z,4.40
2018-09-28T05:20:11.304Z,4.23
2018-09-28T05:22:39.962Z,4.30
2018-09-28T05:25:08.519Z,4.27
2018-09-28T05:27:37.082Z,4.17
2018-09-28T05:30:05.410Z,3.63
2018-09-28T05:32:33.781Z,4.63
2018-09-28T05:35:01.731Z,4.60
2018-09-28T05:37:30.064Z,5.00
2018-09-28T05:40:00.066Z,4.03
2018-09-28T05:42:29.264Z,4.47
2018-09-28T05:44:57.444Z,4.10
2018-09-28T05:47:25.596Z,4.60
2018-09-28T05:49:53.881Z,5.23
2018-09-28T05:52:22.042Z,5.00
2018-09-28T05:54:50.307Z,4.67
2018-09-28T05:57:18.600Z,4.43
2018-09-28T05:59:52.293Z,4.57
2018-09-28T06:02:25.842Z,4.47
2018-09-28T06:04:59.423Z,4.87
2018-09-28T06:07:27.602Z,4.10
2018-09-28T06:09:55.810Z,4.07
2018-09-28T06:12:24.042Z,4.10
2018-09-28T06:14:52.232Z,4.10
2018-09-28T06:17:20.402Z,4.20
2018-09-28T06:19:48.547Z,4.30
2018-09-28T06:22:16.798Z,4.27
2018-09-28T06:24:45.163Z,4.40
2018-09-28T06:27:13.486Z,4.87
2018-09-28T06:29:41.718Z,4.23
2018-09-28T06:32:09.918Z,5.20
2018-09-28T06:34:38.116Z,4.90
2018-09-28T06:37:06.262Z,4.53
2018-09-28T06:39:34.459Z,4.33
2018-09-28T06:42:02.827Z,3.97
2018-09-28T06:44:30.972Z,6.50
2018-09-28T06:46:59.173Z,4.00
2018-09-28T06:49:27.419Z,4.50
2018-09-28T06:51:55.582Z,2.90
2018-09-28T06:54:23.741Z,4.07
2018-09-28T06:56:51.986Z,4.27
2018-09-28T06:59:20.206Z,3.97
2018-09-28T07:01:48.462Z,3.50
2018-09-28T07:04:16.662Z,4.40
2018-09-28T07:06:44.815Z,3.17
2018-09-28T07:09:13.489Z,3.30
2018-09-28T07:11:41.790Z,2.30
2018-09-28T07:14:10.704Z,2.43
2018-09-28T07:16:39.657Z,3.77
2018-09-28T07:19:08.162Z,4.53
2018-09-28T07:21:36.414Z,2.47
2018-09-28T07:24:05.243Z,2.33
2018-09-28T07:26:33.371Z,1.87
2018-09-28T07:29:01.679Z,2.03
2018-09-28T07:31:29.939Z,3.00
2018-09-28T07:33:58.218Z,3.57
2018-09-28T07:36:26.593Z,3.10
2018-09-28T07:38:54.643Z,4.43
2018-09-28T07:41:22.820Z,2.40
2018-09-28T07:43:50.977Z,2.60
2018-09-28T07:46:19.142Z,2.20
2018-09-28T07:48:47.361Z,3.60
2018-09-28T07:51:15.494Z,2.90
2018-09-28T07:53:43.724Z,2.20
2018-09-28T07:56:11.869Z,3.60
2018-09-28T08:01:02.987Z,2.50
2018-09-28T08:03:31.418Z,2.80
2018-09-28T08:06:00.317Z,1.97
2018-09-28T08:08:28.578Z,2.27
2018-09-28T08:10:56.812Z,2.13
2018-09-28T08:13:24.974Z,3.00
2018-09-28T08:15:53.163Z,2.07
2018-09-28T08:18:22.326Z,2.27
2018-09-28T08:20:50.794Z,2.57
2018-09-28T08:23:19.194Z,3.13
2018-09-28T08:25:47.388Z,2.50
2018-09-28T08:28:15.551Z,3.00
2018-09-28T08:30:43.773Z,1.97
2018-09-28T08:33:12.046Z,2.13
2018-09-28T08:35:40.218Z,3.33
2018-09-28T08:38:08.389Z,2.10
2018-09-28T08:40:36.605Z,1.80
2018-09-28T08:43:05.046Z,2.87
2018-09-28T08:45:33.350Z,2.30
2018-09-28T08:48:01.572Z,2.10
2018-09-28T08:50:29.780Z,2.10
2018-09-28T08:52:58.290Z,2.10
2018-09-28T08:55:26.645Z,3.10
2018-09-28T08:57:54.955Z,4.10
2018-09-28T09:00:23.554Z,2.20
2018-09-28T09:02:51.726Z,2.60
2018-09-28T09:05:19.927Z,3.00
2018-09-28T09:07:48.159Z,2.10
2018-09-28T09:10:16.436Z,2.10
2018-09-28T09:12:44.620Z,2.30
2018-09-28T09:15:12.871Z,4.13
2018-09-28T09:17:41.105Z,1.90
2018-09-28T09:20:09.437Z,2.27
2018-09-28T09:22:37.966Z,2.43
2018-09-28T09:25:06.236Z,2.10
2018-09-28T09:27:34.445Z,2.00
2018-09-28T09:30:02.740Z,2.60
2018-09-28T09:32:31.339Z,3.47
2018-09-28T09:35:00.607Z,3.50
2018-09-28T09:37:28.795Z,2.73
2018-09-28T09:39:57.226Z,3.23
2018-09-28T09:42:25.430Z,3.13
2018-09-28T09:44:53.602Z,2.73
2018-09-28T09:47:21.771Z,3.53
2018-09-28T09:49:49.939Z,3.00
2018-09-28T09:52:18.116Z,2.00
2018-09-28T09:54:46.607Z,1.93
2018-09-28T09:57:15.167Z,2.40
2018-09-28T09:59:43.368Z,2.40
2018-09-28T10:02:17.188Z,3.03
2018-09-28T10:04:45.568Z,2.27
2018-09-28T10:07:13.902Z,3.00
2018-09-28T10:09:42.198Z,3.30
2018-09-28T10:12:10.394Z,1.90
2018-09-28T10:14:38.567Z,2.23
2018-09-28T10:17:06.988Z,2.23
2018-09-28T10:19:35.141Z,2.30
2018-09-28T10:22:03.351Z,2.37
2018-09-28T10:24:31.551Z,1.90
2018-09-28T10:26:59.758Z,2.90
2018-09-28T10:29:27.958Z,2.10
2018-09-28T10:31:56.234Z,1.90
2018-09-28T10:34:24.709Z,2.50
2018-09-28T10:36:52.859Z,2.13
2018-09-28T10:39:22.757Z,1.73
2018-09-28T10:41:51.105Z,2.20
2018-09-28T10:44:19.482Z,3.03
2018-09-28T10:46:47.912Z,2.23
2018-09-28T10:49:16.388Z,3.00
2018-09-28T10:51:44.744Z,3.40
2018-09-28T10:54:13.061Z,2.80
2018-09-28T10:56:41.322Z,2.23
2018-09-28T10:59:09.823Z,2.30
2018-09-28T11:01:38.323Z,1.80
2018-09-28T11:04:09.589Z,2.60
2018-09-28T11:06:37.762Z,2.67
2018-09-28T11:09:08.393Z,2.17
2018-09-28T11:11:36.707Z,2.47
2018-09-28T11:14:04.875Z,3.47
2018-09-28T11:16:33.061Z,3.33
2018-09-28T11:19:01.528Z,2.47
2018-09-28T11:21:30.126Z,5.23
2018-09-28T11:23:58.594Z,2.80
2018-09-28T11:26:27.269Z,2.33
2018-09-28T11:28:55.638Z,2.90
2018-09-28T11:31:23.862Z,2.23
2018-09-28T11:33:52.134Z,2.57
2018-09-28T11:36:20.310Z,2.80
2018-09-28T11:38:48.677Z,2.50
2018-09-28T11:41:16.941Z,2.63
2018-09-28T11:43:45.181Z,2.67
2018-09-28T11:46:13.416Z,2.77
2018-09-28T11:48:41.644Z,2.60
2018-09-28T11:51:10.149Z,2.13
2018-09-28T11:53:38.440Z,3.20
2018-09-28T11:56:06.687Z,5.00
2018-09-28T11:58:34.918Z,2.10
2018-09-28T12:01:03.090Z,2.70
2018-09-28T12:03:31.232Z,2.70
2018-09-28T12:05:59.571Z,3.00
2018-09-28T12:08:27.903Z,4.20
2018-09-28T12:10:56.160Z,3.00
2018-09-28T12:13:24.276Z,2.33
2018-09-28T12:15:52.612Z,2.97
2018-09-28T12:18:20.908Z,2.50
2018-09-28T12:20:49.135Z,2.63
2018-09-28T12:23:17.367Z,2.40
2018-09-28T12:25:45.539Z,2.87
2018-09-28T12:28:13.718Z,2.23
2018-09-28T12:30:41.976Z,2.10
2018-09-28T12:33:10.172Z,1.80
2018-09-28T12:35:38.467Z,2.23
2018-09-28T12:38:06.719Z,2.47
2018-09-28T12:40:34.893Z,2.00
2018-09-28T12:43:03.123Z,3.00
2018-09-28T12:45:31.375Z,2.57
2018-09-28T12:47:59.576Z,2.93
2018-09-28T12:50:28.005Z,2.10
2018-09-28T12:52:56.122Z,2.00
2018-09-28T12:55:24.593Z,2.93
2018-09-28T12:57:52.855Z,2.20
2018-09-28T13:00:23.027Z,2.03
2018-09-28T13:02:51.396Z,2.50
2018-09-28T13:05:19.701Z,3.50
2018-09-28T13:07:48.046Z,2.63
2018-09-28T13:10:16.577Z,2.10
2018-09-28T13:12:44.792Z,2.60
2018-09-28T13:15:13.134Z,2.57
2018-09-28T13:17:41.410Z,2.30
2018-09-28T13:20:09.711Z,2.30
2018-09-28T13:22:38.027Z,2.40
2018-09-28T13:25:06.290Z,1.87
2018-09-28T13:27:34.559Z,1.77
2018-09-28T13:30:02.767Z,2.03
2018-09-28T13:32:30.989Z,1.77
2018-09-28T13:34:59.383Z,2.20
2018-09-28T13:37:27.605Z,1.90
2018-09-28T13:39:55.790Z,2.80
2018-09-28T13:42:24.058Z,2.10
2018-09-28T13:44:52.404Z,2.27
2018-09-28T13:47:20.578Z,2.57
2018-09-28T13:49:48.925Z,4.03
2018-09-28T13:52:17.550Z,2.50
2018-09-28T13:54:45.921Z,2.53
2018-09-28T13:57:14.115Z,1.90
2018-09-28T13:59:42.327Z,2.60
2018-09-28T14:02:10.568Z,1.90
2018-09-28T14:04:38.833Z,2.13
2018-09-28T14:07:07.314Z,1.80
2018-09-28T14:09:35.280Z,1.80
2018-09-28T14:12:03.492Z,2.30
2018-09-28T14:14:31.865Z,2.20
2018-09-28T14:17:00.034Z,2.17
2018-09-28T14:19:28.394Z,2.13
2018-09-28T14:21:56.593Z,2.43
2018-09-28T14:24:25.365Z,3.20
2018-09-28T14:26:53.574Z,2.40
2018-09-28T14:29:21.783Z,3.60
2018-09-28T14:31:50.075Z,2.30
2018-09-28T14:34:18.292Z,3.13
2018-09-28T14:36:46.499Z,3.30
2018-09-28T14:39:14.726Z,2.00
2018-09-28T14:41:43.065Z,2.93
2018-09-28T14:44:11.258Z,3.07
2018-09-28T14:46:39.522Z,2.70
2018-09-28T14:49:07.937Z,2.50
2018-09-28T14:51:36.110Z,2.93
2018-09-28T14:54:04.369Z,3.10
2018-09-28T14:56:32.623Z,2.80
2018-09-28T14:59:00.778Z,3.07
2018-09-28T15:01:29.216Z,3.17
2018-09-28T15:03:57.403Z,2.90
2018-09-28T15:06:25.706Z,3.17
2018-09-28T15:08:54.038Z,2.97
2018-09-28T15:11:22.247Z,2.40
2018-09-28T15:13:50.393Z,2.00
2018-09-28T15:16:18.657Z,2.47
2018-09-28T15:18:47.172Z,2.70
2018-09-28T15:21:15.319Z,2.73
2018-09-28T15:23:43.546Z,2.67
2018-09-28T15:28:52.495Z,2.40
2018-09-28T15:31:20.723Z,2.10
2018-09-28T15:33:48.970Z,2.83
2018-09-28T15:36:17.262Z,2.83
2018-09-28T15:38:45.454Z,2.40
2018-09-28T15:41:13.631Z,2.43
2018-09-28T15:43:41.794Z,2.80
2018-09-28T15:46:10.047Z,2.70
2018-09-28T15:48:38.409Z,3.17
2018-09-28T15:51:06.842Z,2.97
2018-09-28T15:53:34.985Z,3.57
2018-09-28T15:56:03.162Z,4.47
2018-09-28T15:58:31.314Z,2.70
2018-09-28T16:00:59.490Z,2.80
2018-09-28T16:03:27.707Z,3.30
2018-09-28T16:05:56.115Z,2.67
2018-09-28T16:08:24.532Z,2.90
2018-09-28T16:10:52.917Z,3.40
2018-09-28T16:13:21.356Z,2.70
2018-09-28T16:15:49.512Z,3.20
2018-09-28T16:18:17.918Z,3.57
2018-09-28T16:20:46.256Z,3.10
2018-09-28T16:23:14.678Z,3.30
2018-09-28T16:25:43.093Z,2.40
2018-09-28T16:28:11.406Z,3.23
2018-09-28T16:30:39.815Z,2.80
2018-09-28T16:33:08.035Z,2.57
2018-09-28T16:35:36.230Z,3.33
2018-09-28T16:38:04.494Z,3.03
2018-09-28T16:40:33.012Z,3.03
2018-09-28T16:43:01.368Z,2.93
2018-09-28T16:45:31.097Z,3.50
2018-09-28T16:47:59.576Z,3.43
2018-09-28T16:50:27.731Z,3.03
2018-09-28T16:52:55.994Z,2.90
2018-09-28T16:55:24.139Z,2.60
2018-09-28T16:57:52.383Z,3.50
2018-09-28T17:00:20.476Z,3.23
2018-09-28T17:02:48.846Z,2.57
2018-09-28T17:05:54.299Z,3.20
2018-09-28T17:08:49.201Z,3.17
2018-09-28T17:11:17.494Z,4.00
2018-09-28T17:13:45.806Z,2.97
2018-09-28T17:16:13.955Z,4.33
2018-09-28T17:18:42.149Z,6.57
2018-09-28T17:21:10.354Z,4.10
2018-09-28T17:23:38.616Z,4.00
2018-09-28T17:26:07.086Z,3.37
2018-09-28T17:28:35.285Z,3.40
2018-09-28T17:31:03.403Z,3.50
2018-09-28T17:33:31.583Z,3.43
2018-09-28T17:35:59.850Z,2.67
2018-09-28T17:38:27.983Z,3.27
2018-09-28T17:40:56.157Z,3.13
2018-09-28T17:43:24.357Z,2.77
2018-09-28T17:45:52.534Z,2.90
2018-09-28T17:48:20.690Z,2.90
2018-09-28T17:50:48.946Z,3.10
2018-09-28T17:53:17.128Z,3.43
2018-09-28T17:55:45.370Z,2.70
2018-09-28T17:58:13.606Z,3.03
2018-09-28T18:00:41.862Z,3.47
2018-09-28T18:03:10.099Z,3.17
2018-09-28T18:05:38.302Z,3.23
2018-09-28T18:08:06.635Z,2.80
2018-09-28T18:10:34.860Z,3.37
2018-09-28T18:13:03.011Z,3.10
2018-09-28T18:15:31.154Z,3.00
2018-09-28T18:17:59.366Z,3.30
2018-09-28T18:20:27.501Z,3.27
2018-09-28T18:22:55.639Z,2.83
2018-09-28T18:25:23.760Z,3.13
2018-09-28T18:27:51.964Z,4.00
2018-09-28T18:30:20.122Z,3.30
2018-09-28T18:32:48.405Z,3.07
2018-09-28T18:35:16.641Z,3.47
2018-09-28T18:37:44.812Z,3.40
2018-09-28T18:40:13.001Z,3.73
2018-09-28T18:42:41.159Z,3.33
2018-09-28T18:45:09.332Z,3.10
2018-09-28T18:47:37.475Z,5.47
2018-09-28T18:50:05.674Z,2.90
2018-09-28T18:52:34.268Z,3.03
2018-09-28T18:55:02.443Z,4.23
2018-09-28T18:57:30.625Z,3.00
2018-09-28T18:59:58.762Z,3.43
2018-09-28T19:02:26.975Z,3.20
2018-09-28T19:04:55.101Z,2.87
2018-09-28T19:07:23.284Z,3.37
2018-09-28T19:09:51.447Z,3.40
2018-09-28T19:12:19.638Z,2.97
2018-09-28T19:14:47.815Z,3.47
2018-09-28T19:17:15.971Z,3.57
2018-09-28T19:19:44.124Z,3.63
2018-09-28T19:22:12.288Z,3.27
2018-09-28T19:24:40.444Z,2.60
2018-09-28T19:27:08.767Z,3.40
2018-09-28T19:29:37.113Z,3.50
2018-09-28T19:32:05.250Z,3.10
2018-09-28T19:34:33.410Z,3.57
2018-09-28T19:37:01.554Z,3.60
2018-09-28T19:39:29.740Z,3.27
2018-09-28T19:41:57.879Z,3.50
2018-09-28T19:44:26.024Z,4.37
2018-09-28T19:46:54.256Z,3.77
2018-09-28T19:49:22.487Z,3.43
2018-09-28T19:51:50.671Z,3.70
2018-09-28T19:54:18.819Z,3.17
2018-09-28T19:56:46.984Z,3.60
2018-09-28T19:59:15.324Z,4.10
2018-09-28T20:01:43.534Z,3.37
2018-09-28T20:04:11.668Z,9.47
2018-09-28T20:06:39.852Z,3.90
2018-09-28T20:09:09.091Z,3.80
2018-09-28T20:11:37.260Z,3.13
2018-09-28T20:14:05.509Z,3.70
2018-09-28T20:16:33.688Z,3.17
2018-09-28T20:19:01.859Z,2.93
2018-09-28T20:21:29.999Z,3.13
2018-09-28T20:23:58.942Z,2.90
2018-09-28T20:26:27.129Z,2.40
2018-09-28T20:28:55.278Z,3.50
2018-09-28T20:31:23.470Z,4.03
2018-09-28T20:33:53.553Z,3.47
2018-09-28T20:36:21.706Z,3.53
2018-09-28T20:38:49.831Z,2.97
2018-09-28T20:41:18.017Z,3.80
2018-09-28T20:43:46.191Z,3.60
2018-09-28T20:46:14.367Z,3.53
2018-09-28T20:48:42.656Z,2.87
2018-09-28T20:51:10.809Z,2.90
2018-09-28T20:53:38.958Z,2.83
2018-09-28T20:56:07.118Z,3.43
2018-09-28T20:58:35.244Z,3.17
2018-09-28T21:01:03.517Z,3.17
2018-09-28T21:03:31.695Z,3.33
2018-09-28T21:05:59.890Z,3.50
2018-09-28T21:08:28.177Z,3.93
2018-09-28T21:10:56.311Z,3.80
2018-09-28T21:13:24.547Z,3.80
2018-09-28T21:15:52.671Z,3.00
2018-09-28T21:18:20.823Z,3.17
2018-09-28T21:20:49.143Z,3.13
2018-09-28T21:23:17.331Z,3.70
2018-09-28T21:25:45.539Z,3.20
2018-09-28T21:28:13.728Z,2.87
2018-09-28T21:30:41.892Z,3.77
2018-09-28T21:33:10.062Z,3.10
2018-09-28T21:35:38.234Z,3.50
2018-09-28T21:38:06.509Z,3.17
2018-09-28T21:40:34.643Z,2.97
2018-09-28T21:43:02.758Z,2.90
2018-09-28T21:45:30.991Z,3.30
2018-09-28T21:47:59.209Z,2.97
2018-09-28T21:50:27.351Z,3.00
2018-09-28T21:52:55.581Z,3.80
2018-09-28T21:55:23.788Z,2.93
2018-09-28T21:57:52.036Z,3.20
2018-09-28T22:00:20.390Z,3.23
2018-09-28T22:02:48.592Z,3.47
2018-09-28T22:05:16.771Z,3.20
2018-09-28T22:07:44.970Z,3.43
2018-09-28T22:10:13.165Z,3.30
2018-09-28T22:12:41.349Z,3.40
2018-09-28T22:15:09.654Z,3.73
2018-09-28T22:17:37.956Z,2.97
2018-09-28T22:20:06.467Z,3.90
2018-09-28T22:22:34.619Z,3.90
2018-09-28T22:25:02.807Z,4.00
2018-09-28T22:27:30.979Z,3.43
2018-09-28T22:29:59.148Z,3.83
2018-09-28T22:32:27.406Z,3.40
2018-09-28T22:34:55.589Z,3.23
2018-09-28T22:37:23.748Z,3.43
2018-09-28T22:39:51.907Z,3.37
2018-09-28T22:42:20.140Z,3.43
2018-09-28T22:44:48.274Z,3.17
2018-09-28T22:47:16.471Z,3.40
2018-09-28T22:49:44.912Z,3.70
2018-09-28T22:52:13.115Z,3.37
2018-09-28T22:54:41.238Z,3.03
2018-09-28T22:57:09.406Z,3.13
2018-09-28T22:59:37.598Z,3.80
2018-09-28T23:02:05.853Z,2.93
2018-09-28T23:04:34.041Z,3.40
2018-09-28T23:07:02.203Z,3.03
2018-09-28T23:09:30.350Z,2.83
2018-09-28T23:11:58.611Z,3.53
2018-09-28T23:14:26.790Z,3.07
2018-09-28T23:16:54.939Z,3.47
2018-09-28T23:19:23.116Z,3.27
2018-09-28T23:21:51.625Z,3.37
2018-09-28T23:24:20.067Z,3.27
2018-09-28T23:26:48.241Z,3.20
2018-09-28T23:29:16.434Z,2.93
2018-09-28T23:31:44.669Z,4.20
2018-09-28T23:34:12.804Z,3.50
2018-09-28T23:36:41.008Z,3.33
2018-09-28T23:39:10.367Z,3.37
2018-09-28T23:41:38.863Z,2.93
2018-09-28T23:44:07.764Z,3.43
2018-09-28T23:46:35.960Z,2.97
2018-09-28T23:49:04.240Z,3.80
2018-09-28T23:51:32.593Z,3.60
2018-09-28T23:54:00.757Z,3.50
2018-09-28T23:56:28.926Z,3.13
2018-09-28T23:58:57.178Z,3.30
